sensor_id;sensor_type;location;lat;lon;timestamp;temperature;humidity
10390;DHT22;5241;47.830;12.972;2023-04-09T00:01:53;3.40;99.90
10390;DHT22;5241;47.830;12.972;2023-04-09T00:04:19;3.30;99.90
10390;DHT22;5241;47.830;12.972;2023-04-09T00:06:46;3.30;99.90
10390;DHT22;5241;47.830;12.972;2023-04-09T00:09:12;3.30;99.90
10390;DHT22;5241;47.830;12.972;2023-04-09T00:11:37;3.30;99.90
10390;DHT22;5241;47.830;12.972;2023-04-09T00:14:03;3.20;99.90
10390;DHT22;5241;47.830;12.972;2023-04-09T00:16:29;3.20;99.90
10390;DHT22;5241;47.830;12.972;2023-04-09T00:18:54;3.30;99.90
10390;DHT22;5241;47.830;12.972;2023-04-09T00:21:20;3.30;99.90
10390;DHT22;5241;47.830;12.972;2023-04-09T00:23:46;3.30;99.90
10390;DHT22;5241;47.830;12.972;2023-04-09T00:26:12;3.30;99.90
10390;DHT22;5241;47.830;12.972;2023-04-09T00:28:37;3.30;99.90
10390;DHT22;5241;47.830;12.972;2023-04-09T00:31:03;3.40;99.90
10390;DHT22;5241;47.830;12.972;2023-04-09T00:33:28;3.40;99.90
10390;DHT22;5241;47.830;12.972;2023-04-09T00:35:54;3.40;99.90
10390;DHT22;5241;47.830;12.972;2023-04-09T00:38:19;3.40;99.90
10390;DHT22;5241;47.830;12.972;2023-04-09T00:40:49;3.40;99.90
10390;DHT22;5241;47.830;12.972;2023-04-09T00:43:15;3.40;99.90
10390;DHT22;5241;47.830;12.972;2023-04-09T00:45:43;3.40;99.90
10390;DHT22;5241;47.830;12.972;2023-04-09T00:48:08;3.40;99.90
10390;DHT22;5241;47.830;12.972;2023-04-09T00:50:34;3.50;99.90
10390;DHT22;5241;47.830;12.972;2023-04-09T00:53:00;3.50;99.90
10390;DHT22;5241;47.830;12.972;2023-04-09T00:55:25;3.50;99.90
10390;DHT22;5241;47.830;12.972;2023-04-09T00:57:51;3.60;99.90
10390;DHT22;5241;47.830;12.972;2023-04-09T01:00:17;3.60;99.90
10390;DHT22;5241;47.830;12.972;2023-04-09T01:02:42;3.60;99.90
10390;DHT22;5241;47.830;12.972;2023-04-09T01:05:09;3.60;99.90
10390;DHT22;5241;47.830;12.972;2023-04-09T01:07:58;3.60;99.90
10390;DHT22;5241;47.830;12.972;2023-04-09T01:10:41;3.60;99.90
10390;DHT22;5241;47.830;12.972;2023-04-09T01:13:11;3.60;99.90
10390;DHT22;5241;47.830;12.972;2023-04-09T01:15:43;3.60;99.90
10390;DHT22;5241;47.830;12.972;2023-04-09T01:18:18;3.60;99.90
10390;DHT22;5241;47.830;12.972;2023-04-09T01:21:08;3.60;99.90
10390;DHT22;5241;47.830;12.972;2023-04-09T01:28:45;3.70;99.90
10390;DHT22;5241;47.830;12.972;2023-04-09T01:31:16;3.70;99.90
10390;DHT22;5241;47.830;12.972;2023-04-09T01:33:43;3.70;99.90
10390;DHT22;5241;47.830;12.972;2023-04-09T01:36:09;3.70;99.90
10390;DHT22;5241;47.830;12.972;2023-04-09T01:38:38;3.70;99.90
10390;DHT22;5241;47.830;12.972;2023-04-09T01:41:05;3.70;99.90
10390;DHT22;5241;47.830;12.972;2023-04-09T01:43:32;3.70;99.90
10390;DHT22;5241;47.830;12.972;2023-04-09T01:46:00;3.60;99.90
10390;DHT22;5241;47.830;12.972;2023-04-09T01:48:27;3.60;99.90
10390;DHT22;5241;47.830;12.972;2023-04-09T01:50:53;3.60;99.90
10390;DHT22;5241;47.830;12.972;2023-04-09T01:53:20;3.70;99.90
10390;DHT22;5241;47.830;12.972;2023-04-09T01:55:46;3.60;99.90
10390;DHT22;5241;47.830;12.972;2023-04-09T01:58:12;3.60;99.90
10390;DHT22;5241;47.830;12.972;2023-04-09T02:00:39;3.80;99.90
10390;DHT22;5241;47.830;12.972;2023-04-09T02:03:40;3.70;99.90
10390;DHT22;5241;47.830;12.972;2023-04-09T02:08:52;3.60;99.90
10390;DHT22;5241;47.830;12.972;2023-04-09T02:11:20;3.60;99.90
10390;DHT22;5241;47.830;12.972;2023-04-09T02:13:48;3.60;99.90
10390;DHT22;5241;47.830;12.972;2023-04-09T02:16:16;3.50;99.90
10390;DHT22;5241;47.830;12.972;2023-04-09T02:18:42;3.50;99.90
10390;DHT22;5241;47.830;12.972;2023-04-09T02:21:08;3.40;99.90
10390;DHT22;5241;47.830;12.972;2023-04-09T02:23:35;3.40;99.90
10390;DHT22;5241;47.830;12.972;2023-04-09T02:26:00;3.30;99.90
10390;DHT22;5241;47.830;12.972;2023-04-09T02:28:26;3.30;99.90
10390;DHT22;5241;47.830;12.972;2023-04-09T02:30:52;3.30;99.90
10390;DHT22;5241;47.830;12.972;2023-04-09T02:33:17;3.30;99.90
10390;DHT22;5241;47.830;12.972;2023-04-09T02:35:43;3.30;99.90
10390;DHT22;5241;47.830;12.972;2023-04-09T02:38:09;3.30;99.90
10390;DHT22;5241;47.830;12.972;2023-04-09T02:40:39;3.40;99.90
10390;DHT22;5241;47.830;12.972;2023-04-09T02:43:08;3.40;99.90
10390;DHT22;5241;47.830;12.972;2023-04-09T02:45:34;3.40;99.90
10390;DHT22;5241;47.830;12.972;2023-04-09T02:48:00;3.50;99.90
10390;DHT22;5241;47.830;12.972;2023-04-09T02:50:26;3.60;99.90
10390;DHT22;5241;47.830;12.972;2023-04-09T02:52:51;3.50;99.90
10390;DHT22;5241;47.830;12.972;2023-04-09T02:55:19;3.60;99.90
10390;DHT22;5241;47.830;12.972;2023-04-09T02:57:45;3.60;99.90
10390;DHT22;5241;47.830;12.972;2023-04-09T03:00:11;3.50;99.90
10390;DHT22;5241;47.830;12.972;2023-04-09T03:02:36;3.50;99.90
10390;DHT22;5241;47.830;12.972;2023-04-09T03:05:02;3.50;99.90
10390;DHT22;5241;47.830;12.972;2023-04-09T03:07:28;3.40;99.90
10390;DHT22;5241;47.830;12.972;2023-04-09T03:09:53;3.40;99.90
10390;DHT22;5241;47.830;12.972;2023-04-09T03:12:19;3.30;99.90
10390;DHT22;5241;47.830;12.972;2023-04-09T03:14:44;3.30;99.90
10390;DHT22;5241;47.830;12.972;2023-04-09T03:17:10;3.30;99.90
10390;DHT22;5241;47.830;12.972;2023-04-09T03:19:35;3.30;99.90
10390;DHT22;5241;47.830;12.972;2023-04-09T03:22:01;3.30;99.90
10390;DHT22;5241;47.830;12.972;2023-04-09T03:24:27;3.30;99.90
10390;DHT22;5241;47.830;12.972;2023-04-09T03:26:52;3.30;99.90
10390;DHT22;5241;47.830;12.972;2023-04-09T03:29:18;3.30;99.90
10390;DHT22;5241;47.830;12.972;2023-04-09T03:31:43;3.30;99.90
10390;DHT22;5241;47.830;12.972;2023-04-09T03:34:09;3.30;99.90
10390;DHT22;5241;47.830;12.972;2023-04-09T03:36:34;3.30;99.90
10390;DHT22;5241;47.830;12.972;2023-04-09T03:39:00;3.30;99.90
10390;DHT22;5241;47.830;12.972;2023-04-09T03:41:26;3.30;99.90
10390;DHT22;5241;47.830;12.972;2023-04-09T03:43:52;3.30;99.90
10390;DHT22;5241;47.830;12.972;2023-04-09T03:46:17;3.40;99.90
10390;DHT22;5241;47.830;12.972;2023-04-09T03:48:43;3.40;99.90
10390;DHT22;5241;47.830;12.972;2023-04-09T03:51:13;3.30;99.90
10390;DHT22;5241;47.830;12.972;2023-04-09T03:53:40;3.30;99.90
10390;DHT22;5241;47.830;12.972;2023-04-09T03:56:06;3.20;99.90
10390;DHT22;5241;47.830;12.972;2023-04-09T03:58:32;3.20;99.90
10390;DHT22;5241;47.830;12.972;2023-04-09T04:00:58;3.20;99.90
10390;DHT22;5241;47.830;12.972;2023-04-09T04:03:23;3.30;99.90
10390;DHT22;5241;47.830;12.972;2023-04-09T04:05:49;3.30;99.90
10390;DHT22;5241;47.830;12.972;2023-04-09T04:08:14;3.30;99.90
10390;DHT22;5241;47.830;12.972;2023-04-09T04:10:40;3.30;99.90
10390;DHT22;5241;47.830;12.972;2023-04-09T04:13:06;3.30;99.90
10390;DHT22;5241;47.830;12.972;2023-04-09T04:15:41;3.30;99.90
10390;DHT22;5241;47.830;12.972;2023-04-09T04:18:10;3.30;99.90
10390;DHT22;5241;47.830;12.972;2023-04-09T04:20:36;3.40;99.90
10390;DHT22;5241;47.830;12.972;2023-04-09T04:23:03;3.50;99.90
10390;DHT22;5241;47.830;12.972;2023-04-09T04:25:29;3.40;99.90
10390;DHT22;5241;47.830;12.972;2023-04-09T04:27:55;3.50;99.90
10390;DHT22;5241;47.830;12.972;2023-04-09T04:30:21;3.40;99.90
10390;DHT22;5241;47.830;12.972;2023-04-09T04:32:47;3.40;99.90
10390;DHT22;5241;47.830;12.972;2023-04-09T04:35:13;3.40;99.90
10390;DHT22;5241;47.830;12.972;2023-04-09T04:37:38;3.40;99.90
10390;DHT22;5241;47.830;12.972;2023-04-09T04:40:06;3.40;99.90
10390;DHT22;5241;47.830;12.972;2023-04-09T04:42:32;3.40;99.90
10390;DHT22;5241;47.830;12.972;2023-04-09T04:44:58;3.50;99.90
10390;DHT22;5241;47.830;12.972;2023-04-09T04:47:23;3.40;99.90
10390;DHT22;5241;47.830;12.972;2023-04-09T04:49:49;3.40;99.90
10390;DHT22;5241;47.830;12.972;2023-04-09T04:52:15;3.40;99.90
10390;DHT22;5241;47.830;12.972;2023-04-09T04:54:40;3.40;99.90
10390;DHT22;5241;47.830;12.972;2023-04-09T04:57:06;3.50;99.90
10390;DHT22;5241;47.830;12.972;2023-04-09T04:59:31;3.50;99.90
10390;DHT22;5241;47.830;12.972;2023-04-09T05:01:57;3.60;99.90
10390;DHT22;5241;47.830;12.972;2023-04-09T05:04:22;3.60;99.90
10390;DHT22;5241;47.830;12.972;2023-04-09T05:06:48;3.60;99.90
10390;DHT22;5241;47.830;12.972;2023-04-09T05:09:13;3.60;99.90
10390;DHT22;5241;47.830;12.972;2023-04-09T05:11:39;3.70;99.90
10390;DHT22;5241;47.830;12.972;2023-04-09T05:14:04;3.70;99.90
10390;DHT22;5241;47.830;12.972;2023-04-09T05:16:30;3.70;99.90
10390;DHT22;5241;47.830;12.972;2023-04-09T05:18:56;3.60;99.90
10390;DHT22;5241;47.830;12.972;2023-04-09T05:21:22;3.60;99.90
10390;DHT22;5241;47.830;12.972;2023-04-09T05:23:47;3.60;99.90
10390;DHT22;5241;47.830;12.972;2023-04-09T05:26:13;3.50;99.90
10390;DHT22;5241;47.830;12.972;2023-04-09T05:28:38;3.60;99.90
10390;DHT22;5241;47.830;12.972;2023-04-09T05:31:04;3.70;99.90
10390;DHT22;5241;47.830;12.972;2023-04-09T05:33:35;3.80;99.90
10390;DHT22;5241;47.830;12.972;2023-04-09T05:36:02;3.80;99.90
10390;DHT22;5241;47.830;12.972;2023-04-09T05:38:28;3.70;99.90
10390;DHT22;5241;47.830;12.972;2023-04-09T05:40:53;3.80;99.90
10390;DHT22;5241;47.830;12.972;2023-04-09T05:43:19;3.80;99.90
10390;DHT22;5241;47.830;12.972;2023-04-09T05:45:45;3.80;99.90
10390;DHT22;5241;47.830;12.972;2023-04-09T05:48:10;3.90;99.90
10390;DHT22;5241;47.830;12.972;2023-04-09T05:50:36;4.00;99.90
10390;DHT22;5241;47.830;12.972;2023-04-09T05:53:01;4.00;99.90
10390;DHT22;5241;47.830;12.972;2023-04-09T05:55:27;3.90;99.90
10390;DHT22;5241;47.830;12.972;2023-04-09T05:57:53;3.90;99.90
10390;DHT22;5241;47.830;12.972;2023-04-09T06:00:18;3.80;99.90
10390;DHT22;5241;47.830;12.972;2023-04-09T06:02:45;3.80;99.90
10390;DHT22;5241;47.830;12.972;2023-04-09T06:05:11;3.80;99.90
10390;DHT22;5241;47.830;12.972;2023-04-09T06:07:37;3.80;99.90
10390;DHT22;5241;47.830;12.972;2023-04-09T06:10:02;3.80;99.90
10390;DHT22;5241;47.830;12.972;2023-04-09T06:12:28;3.90;99.90
10390;DHT22;5241;47.830;12.972;2023-04-09T06:14:53;4.00;99.90
10390;DHT22;5241;47.830;12.972;2023-04-09T06:17:19;4.00;99.90
10390;DHT22;5241;47.830;12.972;2023-04-09T06:19:44;4.00;99.90
10390;DHT22;5241;47.830;12.972;2023-04-09T06:22:10;4.00;99.90
10390;DHT22;5241;47.830;12.972;2023-04-09T06:24:36;4.20;99.90
10390;DHT22;5241;47.830;12.972;2023-04-09T06:27:01;4.30;99.90
10390;DHT22;5241;47.830;12.972;2023-04-09T06:29:27;4.40;99.90
10390;DHT22;5241;47.830;12.972;2023-04-09T06:31:52;4.50;99.90
10390;DHT22;5241;47.830;12.972;2023-04-09T06:34:18;4.50;99.90
10390;DHT22;5241;47.830;12.972;2023-04-09T06:36:44;4.60;99.90
10390;DHT22;5241;47.830;12.972;2023-04-09T06:39:10;4.70;99.90
10390;DHT22;5241;47.830;12.972;2023-04-09T06:41:35;4.70;99.90
10390;DHT22;5241;47.830;12.972;2023-04-09T06:44:01;4.70;99.90
10390;DHT22;5241;47.830;12.972;2023-04-09T06:46:27;4.70;99.90
10390;DHT22;5241;47.830;12.972;2023-04-09T06:48:53;4.80;99.90
10390;DHT22;5241;47.830;12.972;2023-04-09T06:51:18;4.90;99.90
10390;DHT22;5241;47.830;12.972;2023-04-09T06:53:44;5.00;99.90
10390;DHT22;5241;47.830;12.972;2023-04-09T06:56:12;5.10;99.90
10390;DHT22;5241;47.830;12.972;2023-04-09T06:58:37;5.10;99.90
10390;DHT22;5241;47.830;12.972;2023-04-09T07:01:03;5.10;99.90
10390;DHT22;5241;47.830;12.972;2023-04-09T07:03:29;5.10;99.90
10390;DHT22;5241;47.830;12.972;2023-04-09T07:05:54;5.00;99.90
10390;DHT22;5241;47.830;12.972;2023-04-09T07:08:22;5.00;99.90
10390;DHT22;5241;47.830;12.972;2023-04-09T07:10:47;4.90;99.90
10390;DHT22;5241;47.830;12.972;2023-04-09T07:13:13;4.90;99.90
10390;DHT22;5241;47.830;12.972;2023-04-09T07:15:39;4.80;99.90
10390;DHT22;5241;47.830;12.972;2023-04-09T07:18:04;4.80;99.90
10390;DHT22;5241;47.830;12.972;2023-04-09T07:20:30;4.80;99.90
10390;DHT22;5241;47.830;12.972;2023-04-09T07:22:56;4.90;99.90
10390;DHT22;5241;47.830;12.972;2023-04-09T07:25:21;4.90;99.90
10390;DHT22;5241;47.830;12.972;2023-04-09T07:27:47;4.80;99.90
10390;DHT22;5241;47.830;12.972;2023-04-09T07:30:14;4.80;99.90
10390;DHT22;5241;47.830;12.972;2023-04-09T07:32:39;4.80;99.90
10390;DHT22;5241;47.830;12.972;2023-04-09T07:35:06;4.80;99.90
10390;DHT22;5241;47.830;12.972;2023-04-09T07:37:34;5.00;99.90
10390;DHT22;5241;47.830;12.972;2023-04-09T07:40:00;5.00;99.90
10390;DHT22;5241;47.830;12.972;2023-04-09T07:42:26;5.00;99.90
10390;DHT22;5241;47.830;12.972;2023-04-09T07:44:52;5.10;99.90
10390;DHT22;5241;47.830;12.972;2023-04-09T07:47:18;5.10;99.90
10390;DHT22;5241;47.830;12.972;2023-04-09T07:49:43;5.10;99.90
10390;DHT22;5241;47.830;12.972;2023-04-09T07:52:09;5.20;99.90
10390;DHT22;5241;47.830;12.972;2023-04-09T07:54:35;5.30;99.90
10390;DHT22;5241;47.830;12.972;2023-04-09T07:57:00;5.30;99.90
10390;DHT22;5241;47.830;12.972;2023-04-09T07:59:26;5.40;99.90
10390;DHT22;5241;47.830;12.972;2023-04-09T08:01:52;5.50;99.90
10390;DHT22;5241;47.830;12.972;2023-04-09T08:04:18;5.50;99.90
10390;DHT22;5241;47.830;12.972;2023-04-09T08:06:43;5.50;99.90
10390;DHT22;5241;47.830;12.972;2023-04-09T08:09:14;5.60;99.90
10390;DHT22;5241;47.830;12.972;2023-04-09T08:11:40;5.60;99.90
10390;DHT22;5241;47.830;12.972;2023-04-09T08:14:05;5.70;99.90
10390;DHT22;5241;47.830;12.972;2023-04-09T08:16:31;5.70;99.90
10390;DHT22;5241;47.830;12.972;2023-04-09T08:18:57;5.80;99.90
10390;DHT22;5241;47.830;12.972;2023-04-09T08:21:22;5.70;99.90
10390;DHT22;5241;47.830;12.972;2023-04-09T08:23:48;5.80;99.90
10390;DHT22;5241;47.830;12.972;2023-04-09T08:26:14;6.00;99.90
10390;DHT22;5241;47.830;12.972;2023-04-09T08:28:39;6.00;99.90
10390;DHT22;5241;47.830;12.972;2023-04-09T08:31:08;6.20;99.90
10390;DHT22;5241;47.830;12.972;2023-04-09T08:33:33;6.30;99.90
10390;DHT22;5241;47.830;12.972;2023-04-09T08:35:59;6.20;99.90
10390;DHT22;5241;47.830;12.972;2023-04-09T08:38:25;6.30;99.90
10390;DHT22;5241;47.830;12.972;2023-04-09T08:40:50;6.20;99.90
10390;DHT22;5241;47.830;12.972;2023-04-09T08:43:18;6.10;99.90
10390;DHT22;5241;47.830;12.972;2023-04-09T08:45:46;6.10;99.90
10390;DHT22;5241;47.830;12.972;2023-04-09T08:48:13;6.10;99.90
10390;DHT22;5241;47.830;12.972;2023-04-09T08:50:38;6.10;99.90
10390;DHT22;5241;47.830;12.972;2023-04-09T08:53:05;6.00;99.90
10390;DHT22;5241;47.830;12.972;2023-04-09T08:55:32;6.00;99.90
10390;DHT22;5241;47.830;12.972;2023-04-09T08:58:05;6.00;99.90
10390;DHT22;5241;47.830;12.972;2023-04-09T09:00:35;6.10;99.90
10390;DHT22;5241;47.830;12.972;2023-04-09T09:03:11;6.00;99.90
10390;DHT22;5241;47.830;12.972;2023-04-09T09:05:40;6.20;99.90
10390;DHT22;5241;47.830;12.972;2023-04-09T09:08:11;6.40;99.90
10390;DHT22;5241;47.830;12.972;2023-04-09T09:10:44;6.50;99.90
10390;DHT22;5241;47.830;12.972;2023-04-09T09:13:23;6.60;99.90
10390;DHT22;5241;47.830;12.972;2023-04-09T09:15:54;6.70;99.90
10390;DHT22;5241;47.830;12.972;2023-04-09T09:18:41;6.70;99.90
10390;DHT22;5241;47.830;12.972;2023-04-09T09:21:12;6.40;99.90
10390;DHT22;5241;47.830;12.972;2023-04-09T09:23:37;6.30;99.90
10390;DHT22;5241;47.830;12.972;2023-04-09T09:26:19;6.30;99.90
10390;DHT22;5241;47.830;12.972;2023-04-09T09:28:46;6.20;99.90
10390;DHT22;5241;47.830;12.972;2023-04-09T09:31:13;6.00;99.90
10390;DHT22;5241;47.830;12.972;2023-04-09T09:33:39;6.10;99.90
10390;DHT22;5241;47.830;12.972;2023-04-09T09:36:05;6.10;99.90
10390;DHT22;5241;47.830;12.972;2023-04-09T09:38:56;6.30;99.90
10390;DHT22;5241;47.830;12.972;2023-04-09T09:41:23;6.30;99.90
10390;DHT22;5241;47.830;12.972;2023-04-09T09:43:50;6.20;99.90
10390;DHT22;5241;47.830;12.972;2023-04-09T09:46:16;6.20;99.90
10390;DHT22;5241;47.830;12.972;2023-04-09T09:48:42;6.30;99.90
10390;DHT22;5241;47.830;12.972;2023-04-09T09:51:09;6.50;99.90
10390;DHT22;5241;47.830;12.972;2023-04-09T09:53:37;6.60;99.90
10390;DHT22;5241;47.830;12.972;2023-04-09T09:56:13;6.70;99.90
10390;DHT22;5241;47.830;12.972;2023-04-09T09:58:48;6.80;99.90
10390;DHT22;5241;47.830;12.972;2023-04-09T10:01:16;6.80;99.90
10390;DHT22;5241;47.830;12.972;2023-04-09T10:03:42;6.70;99.90
10390;DHT22;5241;47.830;12.972;2023-04-09T10:06:10;6.60;99.90
10390;DHT22;5241;47.830;12.972;2023-04-09T10:08:36;6.30;99.90
10390;DHT22;5241;47.830;12.972;2023-04-09T10:11:04;6.30;99.90
10390;DHT22;5241;47.830;12.972;2023-04-09T10:13:36;6.40;99.90
10390;DHT22;5241;47.830;12.972;2023-04-09T10:16:03;6.30;99.90
10390;DHT22;5241;47.830;12.972;2023-04-09T10:18:29;6.40;99.90
10390;DHT22;5241;47.830;12.972;2023-04-09T10:21:23;6.40;99.90
10390;DHT22;5241;47.830;12.972;2023-04-09T10:23:47;6.40;99.90
10390;DHT22;5241;47.830;12.972;2023-04-09T10:26:17;6.50;99.90
10390;DHT22;5241;47.830;12.972;2023-04-09T10:28:43;6.50;99.90
10390;DHT22;5241;47.830;12.972;2023-04-09T10:31:08;6.50;99.90
10390;DHT22;5241;47.830;12.972;2023-04-09T10:33:35;6.70;99.90
10390;DHT22;5241;47.830;12.972;2023-04-09T10:36:11;6.60;99.90
10390;DHT22;5241;47.830;12.972;2023-04-09T10:38:39;6.60;99.90
10390;DHT22;5241;47.830;12.972;2023-04-09T10:43:49;6.50;99.90
10390;DHT22;5241;47.830;12.972;2023-04-09T10:46:29;6.60;99.90
10390;DHT22;5241;47.830;12.972;2023-04-09T10:49:17;6.70;99.90
10390;DHT22;5241;47.830;12.972;2023-04-09T10:52:00;6.70;99.90
10390;DHT22;5241;47.830;12.972;2023-04-09T10:54:39;6.80;99.90
10390;DHT22;5241;47.830;12.972;2023-04-09T10:57:11;6.70;99.90
10390;DHT22;5241;47.830;12.972;2023-04-09T10:59:42;6.60;99.90
10390;DHT22;5241;47.830;12.972;2023-04-09T11:02:56;6.50;99.90
10390;DHT22;5241;47.830;12.972;2023-04-09T11:05:42;6.30;99.90
10390;DHT22;5241;47.830;12.972;2023-04-09T11:08:10;6.20;99.90
10390;DHT22;5241;47.830;12.972;2023-04-09T11:10:40;6.10;99.90
10390;DHT22;5241;47.830;12.972;2023-04-09T11:13:10;6.00;99.90
10390;DHT22;5241;47.830;12.972;2023-04-09T11:15:36;6.00;99.90
10390;DHT22;5241;47.830;12.972;2023-04-09T11:18:02;6.00;99.90
10390;DHT22;5241;47.830;12.972;2023-04-09T11:20:28;6.00;99.90
10390;DHT22;5241;47.830;12.972;2023-04-09T11:22:55;6.10;99.90
10390;DHT22;5241;47.830;12.972;2023-04-09T11:25:29;6.00;99.90
10390;DHT22;5241;47.830;12.972;2023-04-09T11:27:55;6.00;99.90
10390;DHT22;5241;47.830;12.972;2023-04-09T11:30:21;6.10;99.90
10390;DHT22;5241;47.830;12.972;2023-04-09T11:32:47;6.10;99.90
10390;DHT22;5241;47.830;12.972;2023-04-09T11:35:18;6.10;99.90
10390;DHT22;5241;47.830;12.972;2023-04-09T11:37:45;6.10;99.90
10390;DHT22;5241;47.830;12.972;2023-04-09T11:40:15;6.20;99.90
10390;DHT22;5241;47.830;12.972;2023-04-09T11:42:43;6.10;99.90
10390;DHT22;5241;47.830;12.972;2023-04-09T11:45:10;6.10;99.90
10390;DHT22;5241;47.830;12.972;2023-04-09T11:47:37;6.00;99.90
10390;DHT22;5241;47.830;12.972;2023-04-09T11:50:04;6.10;99.90
10390;DHT22;5241;47.830;12.972;2023-04-09T11:52:30;6.10;99.90
10390;DHT22;5241;47.830;12.972;2023-04-09T11:55:06;6.10;99.90
10390;DHT22;5241;47.830;12.972;2023-04-09T12:00:06;6.10;99.90
10390;DHT22;5241;47.830;12.972;2023-04-09T12:02:33;6.10;99.90
10390;DHT22;5241;47.830;12.972;2023-04-09T12:05:02;6.10;99.90
10390;DHT22;5241;47.830;12.972;2023-04-09T12:07:35;6.10;99.90
10390;DHT22;5241;47.830;12.972;2023-04-09T12:10:08;6.20;99.90
10390;DHT22;5241;47.830;12.972;2023-04-09T12:12:42;6.20;99.90
10390;DHT22;5241;47.830;12.972;2023-04-09T12:15:20;6.20;99.90
10390;DHT22;5241;47.830;12.972;2023-04-09T12:17:56;6.30;99.90
10390;DHT22;5241;47.830;12.972;2023-04-09T12:22:54;6.00;99.90
10390;DHT22;5241;47.830;12.972;2023-04-09T12:25:20;6.10;99.90
10390;DHT22;5241;47.830;12.972;2023-04-09T12:27:45;6.20;99.90
10390;DHT22;5241;47.830;12.972;2023-04-09T12:30:11;6.20;99.90
10390;DHT22;5241;47.830;12.972;2023-04-09T12:32:37;6.30;99.90
10390;DHT22;5241;47.830;12.972;2023-04-09T12:35:03;6.30;99.90
10390;DHT22;5241;47.830;12.972;2023-04-09T12:37:29;6.30;99.90
10390;DHT22;5241;47.830;12.972;2023-04-09T12:39:54;6.20;99.90
10390;DHT22;5241;47.830;12.972;2023-04-09T12:42:20;6.10;99.90
10390;DHT22;5241;47.830;12.972;2023-04-09T12:44:46;6.10;99.90
10390;DHT22;5241;47.830;12.972;2023-04-09T12:47:11;6.10;99.90
10390;DHT22;5241;47.830;12.972;2023-04-09T12:49:37;6.10;99.90
10390;DHT22;5241;47.830;12.972;2023-04-09T12:52:03;6.20;99.90
10390;DHT22;5241;47.830;12.972;2023-04-09T12:54:29;6.30;99.90
10390;DHT22;5241;47.830;12.972;2023-04-09T12:56:55;6.40;99.90
10390;DHT22;5241;47.830;12.972;2023-04-09T12:59:20;6.50;99.90
10390;DHT22;5241;47.830;12.972;2023-04-09T13:01:46;6.50;99.90
10390;DHT22;5241;47.830;12.972;2023-04-09T13:04:12;6.50;99.90
10390;DHT22;5241;47.830;12.972;2023-04-09T13:06:37;6.60;99.90
10390;DHT22;5241;47.830;12.972;2023-04-09T13:09:03;6.60;99.90
10390;DHT22;5241;47.830;12.972;2023-04-09T13:11:28;6.90;99.90
10390;DHT22;5241;47.830;12.972;2023-04-09T13:13:54;7.10;99.90
10390;DHT22;5241;47.830;12.972;2023-04-09T13:16:19;7.30;99.90
10390;DHT22;5241;47.830;12.972;2023-04-09T13:18:45;7.50;99.90
10390;DHT22;5241;47.830;12.972;2023-04-09T13:21:11;7.70;99.90
10390;DHT22;5241;47.830;12.972;2023-04-09T13:23:39;7.90;99.90
10390;DHT22;5241;47.830;12.972;2023-04-09T13:26:04;8.00;99.90
10390;DHT22;5241;47.830;12.972;2023-04-09T13:28:30;7.90;99.90
10390;DHT22;5241;47.830;12.972;2023-04-09T13:30:56;8.10;99.90
10390;DHT22;5241;47.830;12.972;2023-04-09T13:33:21;8.20;99.90
10390;DHT22;5241;47.830;12.972;2023-04-09T13:35:48;8.40;99.90
10390;DHT22;5241;47.830;12.972;2023-04-09T13:38:15;8.20;99.90
10390;DHT22;5241;47.830;12.972;2023-04-09T13:40:40;8.40;99.90
10390;DHT22;5241;47.830;12.972;2023-04-09T13:43:06;8.60;99.90
10390;DHT22;5241;47.830;12.972;2023-04-09T13:45:32;8.80;99.90
10390;DHT22;5241;47.830;12.972;2023-04-09T13:47:57;8.80;99.90
10390;DHT22;5241;47.830;12.972;2023-04-09T13:50:23;8.80;99.90
10390;DHT22;5241;47.830;12.972;2023-04-09T13:52:48;9.10;99.90
10390;DHT22;5241;47.830;12.972;2023-04-09T13:55:14;9.60;99.90
10390;DHT22;5241;47.830;12.972;2023-04-09T13:57:39;10.10;99.90
10390;DHT22;5241;47.830;12.972;2023-04-09T14:00:06;10.10;99.90
10390;DHT22;5241;47.830;12.972;2023-04-09T14:02:32;10.00;99.90
10390;DHT22;5241;47.830;12.972;2023-04-09T14:04:58;10.00;99.90
10390;DHT22;5241;47.830;12.972;2023-04-09T14:07:24;9.90;99.90
10390;DHT22;5241;47.830;12.972;2023-04-09T14:09:50;9.90;99.90
10390;DHT22;5241;47.830;12.972;2023-04-09T14:12:16;10.00;99.90
10390;DHT22;5241;47.830;12.972;2023-04-09T14:14:41;10.20;99.90
10390;DHT22;5241;47.830;12.972;2023-04-09T14:17:07;9.90;99.90
10390;DHT22;5241;47.830;12.972;2023-04-09T14:19:32;11.40;99.90
10390;DHT22;5241;47.830;12.972;2023-04-09T14:21:58;12.60;99.90
10390;DHT22;5241;47.830;12.972;2023-04-09T14:24:23;13.20;99.90
10390;DHT22;5241;47.830;12.972;2023-04-09T14:26:50;12.50;99.90
10390;DHT22;5241;47.830;12.972;2023-04-09T14:29:17;12.50;99.90
10390;DHT22;5241;47.830;12.972;2023-04-09T14:31:43;13.40;99.90
10390;DHT22;5241;47.830;12.972;2023-04-09T14:34:09;13.90;99.90
10390;DHT22;5241;47.830;12.972;2023-04-09T14:36:35;13.90;99.90
10390;DHT22;5241;47.830;12.972;2023-04-09T14:39:01;12.70;99.90
10390;DHT22;5241;47.830;12.972;2023-04-09T14:41:26;12.10;99.90
10390;DHT22;5241;47.830;12.972;2023-04-09T14:43:52;11.60;99.90
10390;DHT22;5241;47.830;12.972;2023-04-09T14:46:17;11.00;99.90
10390;DHT22;5241;47.830;12.972;2023-04-09T14:48:44;10.60;99.90
10390;DHT22;5241;47.830;12.972;2023-04-09T14:51:10;10.30;99.90
10390;DHT22;5241;47.830;12.972;2023-04-09T14:53:36;10.30;99.90
10390;DHT22;5241;47.830;12.972;2023-04-09T14:56:02;10.70;99.90
10390;DHT22;5241;47.830;12.972;2023-04-09T14:58:28;11.50;99.90
10390;DHT22;5241;47.830;12.972;2023-04-09T15:00:54;11.70;99.90
10390;DHT22;5241;47.830;12.972;2023-04-09T15:03:20;11.30;99.90
10390;DHT22;5241;47.830;12.972;2023-04-09T15:05:46;10.80;99.90
10390;DHT22;5241;47.830;12.972;2023-04-09T15:08:12;10.90;99.90
10390;DHT22;5241;47.830;12.972;2023-04-09T15:10:38;10.80;99.90
10390;DHT22;5241;47.830;12.972;2023-04-09T15:13:03;10.90;99.90
10390;DHT22;5241;47.830;12.972;2023-04-09T15:15:29;10.60;99.90
10390;DHT22;5241;47.830;12.972;2023-04-09T15:17:55;9.80;99.90
10390;DHT22;5241;47.830;12.972;2023-04-09T15:20:20;9.70;99.90
10390;DHT22;5241;47.830;12.972;2023-04-09T15:22:46;9.60;99.90
10390;DHT22;5241;47.830;12.972;2023-04-09T15:25:11;9.50;99.90
10390;DHT22;5241;47.830;12.972;2023-04-09T15:27:37;9.60;99.90
10390;DHT22;5241;47.830;12.972;2023-04-09T15:30:03;9.50;99.90
10390;DHT22;5241;47.830;12.972;2023-04-09T15:32:28;9.50;99.90
10390;DHT22;5241;47.830;12.972;2023-04-09T15:34:55;9.40;99.90
10390;DHT22;5241;47.830;12.972;2023-04-09T15:37:21;9.10;99.90
10390;DHT22;5241;47.830;12.972;2023-04-09T15:39:46;9.00;99.90
10390;DHT22;5241;47.830;12.972;2023-04-09T15:42:12;8.80;99.90
10390;DHT22;5241;47.830;12.972;2023-04-09T15:44:38;8.80;99.90
10390;DHT22;5241;47.830;12.972;2023-04-09T15:47:03;9.00;99.90
10390;DHT22;5241;47.830;12.972;2023-04-09T15:49:29;9.00;99.90
10390;DHT22;5241;47.830;12.972;2023-04-09T15:51:54;9.00;99.90
10390;DHT22;5241;47.830;12.972;2023-04-09T15:54:20;9.00;99.90
10390;DHT22;5241;47.830;12.972;2023-04-09T15:56:45;9.00;99.90
10390;DHT22;5241;47.830;12.972;2023-04-09T15:59:11;9.00;99.90
10390;DHT22;5241;47.830;12.972;2023-04-09T16:01:36;8.90;99.90